Smit Clyde — CFG7577 — position and weather

sailwx.info

Track history (hours):
 
Tides and Currents Weather Stations Pressure Air Temp Water Temp Dewpoint Dewpoint Depression Visibility Wind Speed Wind Dir Waves Ship Positions

Smit Clyde

Last reported at 2014-Oct-24 19:33 UTC. Time now 2014-Oct-24 20:30 UTC.
Position N 54°18' W 130°21'.

Length 28 m; draft 6 m.

Type: Towing. MMSI: 316011473.

Date/timePositionNaut miles runAvg speedWind from/ knotsBaromVisibWave heightAir tempDewpointWater temp
2014-Oct-24 19:33N 54°18' W 130°21'0 0.0
2014-Oct-24 18:33N 54°18' W 130°21'0 0.0
2014-Oct-24 17:33N 54°18' W 130°21'0 0.0
2014-Oct-24 04:33N 54°18' W 130°21'0 0.0
2014-Oct-24 03:33N 54°18' W 130°21'0 0.0
2014-Oct-24 02:33N 54°18' W 130°21'0 0.0
2014-Oct-24 01:33N 54°18' W 130°21'0 0.4
2014-Oct-24 00:33N 54°17' W 130°22'0 0.1
2014-Oct-23 23:33N 54°17' W 130°22'0 0.3
2014-Oct-23 22:33N 54°18' W 130°21'0 0.0
2014-Oct-23 21:33N 54°18' W 130°21'0 0.0
2014-Oct-23 20:33N 54°18' W 130°21'4 3.5
2014-Oct-23 19:24N 54°14' W 130°20'4 0.1
2014-Oct-22 07:20N 54°18' W 130°21'0 0.0
2014-Oct-22 06:33N 54°18' W 130°21'0 0.0
2014-Oct-22 05:33N 54°18' W 130°21'5 2.4
2014-Oct-22 03:29N 54°12' W 130°21'3 3.1
2014-Oct-22 02:33N 54°15' W 130°21'2 2.1
2014-Oct-22 01:33N 54°18' W 130°21'0 0.0
2014-Oct-22 00:33N 54°18' W 130°21'4 4.0
2014-Oct-21 23:33N 54°14' W 130°21'0 0.2
2014-Oct-21 22:19N 54°14' W 130°21'4 5.0
2014-Oct-21 21:33N 54°18' W 130°21'0 0.0
2014-Oct-21 20:33N 54°18' W 130°21'0 0.0
2014-Oct-21 19:33N 54°18' W 130°21'0 0.0
2014-Oct-21 18:33N 54°18' W 130°21'0 0.0
2014-Oct-21 17:33N 54°18' W 130°21'0 0.0
2014-Oct-21 14:05N 54°18' W 130°21'0 0.0
2014-Oct-21 13:33N 54°18' W 130°21'0 0.0
2014-Oct-21 12:33N 54°18' W 130°21'0 0.0
2014-Oct-21 11:33N 54°18' W 130°21'0 0.0
2014-Oct-21 10:33N 54°18' W 130°21'0 0.0
2014-Oct-21 09:33N 54°18' W 130°21'1 0.6
2014-Oct-21 08:33N 54°17' W 130°22'0 0.2
2014-Oct-21 07:33N 54°17' W 130°22'0 0.4
2014-Oct-21 06:33N 54°18' W 130°21'0 0.0
2014-Oct-21 05:33N 54°18' W 130°21'0 0.0
2014-Oct-21 04:33N 54°18' W 130°21'0 0.0
2014-Oct-21 03:33N 54°18' W 130°21'0 0.0
2014-Oct-21 02:33N 54°18' W 130°21'0 0.0
2014-Oct-21 01:33N 54°18' W 130°21'0 0.0
2014-Oct-21 00:33N 54°18' W 130°21'0 0.0
2014-Oct-20 23:33N 54°18' W 130°21'0 0.0
2014-Oct-20 22:33N 54°18' W 130°21'0 0.0
2014-Oct-20 21:33N 54°18' W 130°21'0 0.0
2014-Oct-20 20:33N 54°18' W 130°21'0 0.0
2014-Oct-20 19:33N 54°18' W 130°21'0 0.0
2014-Oct-20 18:33N 54°18' W 130°21'0 0.0
2014-Oct-20 17:33N 54°18' W 130°21'0 0.0
2014-Oct-20 16:33N 54°18' W 130°21'0 0.0
2014-Oct-20 09:33N 54°18' W 130°21'0 0.0
2014-Oct-20 08:33N 54°18' W 130°21'0 0.0
2014-Oct-20 07:33N 54°18' W 130°21'0 0.0
2014-Oct-20 06:33N 54°18' W 130°21'0 0.0
2014-Oct-20 05:33N 54°18' W 130°21'0 0.0
2014-Oct-20 04:33N 54°18' W 130°21'0 0.0
2014-Oct-19 09:33N 54°18' W 130°21'0 0.0
2014-Oct-19 08:33N 54°18' W 130°21'0 0.0
2014-Oct-19 07:33N 54°18' W 130°21'0 0.0
2014-Oct-19 06:33N 54°18' W 130°21'0 0.0
2014-Oct-19 05:33N 54°18' W 130°21'4 3.8
2014-Oct-19 04:32N 54°14' W 130°21'0 0.1
2014-Oct-19 03:16N 54°14' W 130°20'1 0.5
2014-Oct-19 01:33N 54°13' W 130°21'0 0.3
2014-Oct-19 00:33N 54°13' W 130°21'5 4.6
2014-Oct-18 23:33N 54°18' W 130°21'0 0.0
2014-Oct-18 22:33N 54°18' W 130°21'0 0.0
2014-Oct-18 21:33N 54°18' W 130°21'0 0.0
2014-Oct-18 20:33N 54°18' W 130°21'0 0.0
2014-Oct-18 19:33N 54°18' W 130°21'0 0.0
2014-Oct-18 18:33N 54°18' W 130°21'0 0.0
2014-Oct-18 17:33N 54°18' W 130°21'0 0.0
2014-Oct-16 21:33N 54°18' W 130°21'0 0.0
2014-Oct-16 20:33N 54°18' W 130°21'0 0.0
2014-Oct-16 19:33N 54°18' W 130°21'0 0.0
2014-Oct-16 18:33N 54°18' W 130°21'0 0.0
2014-Oct-16 17:33N 54°18' W 130°21'  
Track history (hours):
 
Tides and Currents Weather Stations Pressure Air Temp Water Temp Dewpoint Dewpoint Depression Visibility Wind Speed Wind Dir Waves Ship Positions

Smit Clyde

Last reported at 2014-Oct-24 19:33 UTC. Time now 2014-Oct-24 20:30 UTC.
Position N 54°18' W 130°21'.

Length 28 m; draft 6 m.

Type: Towing. MMSI: 316011473.

Date/timePositionNaut miles runAvg speedWind from/ knotsBaromVisibWave heightAir tempDewpointWater temp
2014-Oct-24 19:33N 54°18' W 130°21'0 0.0
2014-Oct-24 18:33N 54°18' W 130°21'0 0.0
2014-Oct-24 17:33N 54°18' W 130°21'0 0.0
2014-Oct-24 04:33N 54°18' W 130°21'0 0.0
2014-Oct-24 03:33N 54°18' W 130°21'0 0.0
2014-Oct-24 02:33N 54°18' W 130°21'0 0.0
2014-Oct-24 01:33N 54°18' W 130°21'0 0.4
2014-Oct-24 00:33N 54°17' W 130°22'0 0.1
2014-Oct-23 23:33N 54°17' W 130°22'0 0.3
2014-Oct-23 22:33N 54°18' W 130°21'0 0.0
2014-Oct-23 21:33N 54°18' W 130°21'0 0.0
2014-Oct-23 20:33N 54°18' W 130°21'4 3.5
2014-Oct-23 19:24N 54°14' W 130°20'4 0.1
2014-Oct-22 07:20N 54°18' W 130°21'0 0.0
2014-Oct-22 06:33N 54°18' W 130°21'0 0.0
2014-Oct-22 05:33N 54°18' W 130°21'5 2.4
2014-Oct-22 03:29N 54°12' W 130°21'3 3.1
2014-Oct-22 02:33N 54°15' W 130°21'2 2.1
2014-Oct-22 01:33N 54°18' W 130°21'0 0.0
2014-Oct-22 00:33N 54°18' W 130°21'4 4.0
2014-Oct-21 23:33N 54°14' W 130°21'0 0.2
2014-Oct-21 22:19N 54°14' W 130°21'4 5.0
2014-Oct-21 21:33N 54°18' W 130°21'0 0.0
2014-Oct-21 20:33N 54°18' W 130°21'0 0.0
2014-Oct-21 19:33N 54°18' W 130°21'0 0.0
2014-Oct-21 18:33N 54°18' W 130°21'0 0.0
2014-Oct-21 17:33N 54°18' W 130°21'0 0.0
2014-Oct-21 14:05N 54°18' W 130°21'0 0.0
2014-Oct-21 13:33N 54°18' W 130°21'0 0.0
2014-Oct-21 12:33N 54°18' W 130°21'0 0.0
2014-Oct-21 11:33N 54°18' W 130°21'0 0.0
2014-Oct-21 10:33N 54°18' W 130°21'0 0.0
2014-Oct-21 09:33N 54°18' W 130°21'1 0.6
2014-Oct-21 08:33N 54°17' W 130°22'0 0.2
2014-Oct-21 07:33N 54°17' W 130°22'0 0.4
2014-Oct-21 06:33N 54°18' W 130°21'0 0.0
2014-Oct-21 05:33N 54°18' W 130°21'0 0.0
2014-Oct-21 04:33N 54°18' W 130°21'0 0.0
2014-Oct-21 03:33N 54°18' W 130°21'0 0.0
2014-Oct-21 02:33N 54°18' W 130°21'0 0.0
2014-Oct-21 01:33N 54°18' W 130°21'0 0.0
2014-Oct-21 00:33N 54°18' W 130°21'0 0.0
2014-Oct-20 23:33N 54°18' W 130°21'0 0.0
2014-Oct-20 22:33N 54°18' W 130°21'0 0.0
2014-Oct-20 21:33N 54°18' W 130°21'0 0.0
2014-Oct-20 20:33N 54°18' W 130°21'0 0.0
2014-Oct-20 19:33N 54°18' W 130°21'0 0.0
2014-Oct-20 18:33N 54°18' W 130°21'0 0.0
2014-Oct-20 17:33N 54°18' W 130°21'0 0.0
2014-Oct-20 16:33N 54°18' W 130°21'0 0.0
2014-Oct-20 09:33N 54°18' W 130°21'0 0.0
2014-Oct-20 08:33N 54°18' W 130°21'0 0.0
2014-Oct-20 07:33N 54°18' W 130°21'0 0.0
2014-Oct-20 06:33N 54°18' W 130°21'0 0.0
2014-Oct-20 05:33N 54°18' W 130°21'0 0.0
2014-Oct-20 04:33N 54°18' W 130°21'0 0.0
2014-Oct-19 09:33N 54°18' W 130°21'0 0.0
2014-Oct-19 08:33N 54°18' W 130°21'0 0.0
2014-Oct-19 07:33N 54°18' W 130°21'0 0.0
2014-Oct-19 06:33N 54°18' W 130°21'0 0.0
2014-Oct-19 05:33N 54°18' W 130°21'4 3.8
2014-Oct-19 04:32N 54°14' W 130°21'0 0.1
2014-Oct-19 03:16N 54°14' W 130°20'1 0.5
2014-Oct-19 01:33N 54°13' W 130°21'0 0.3
2014-Oct-19 00:33N 54°13' W 130°21'5 4.6
2014-Oct-18 23:33N 54°18' W 130°21'0 0.0
2014-Oct-18 22:33N 54°18' W 130°21'0 0.0
2014-Oct-18 21:33N 54°18' W 130°21'0 0.0
2014-Oct-18 20:33N 54°18' W 130°21'0 0.0
2014-Oct-18 19:33N 54°18' W 130°21'0 0.0
2014-Oct-18 18:33N 54°18' W 130°21'0 0.0
2014-Oct-18 17:33N 54°18' W 130°21'0 0.0
2014-Oct-16 21:33N 54°18' W 130°21'0 0.0
2014-Oct-16 20:33N 54°18' W 130°21'0 0.0
2014-Oct-16 19:33N 54°18' W 130°21'0 0.0
2014-Oct-16 18:33N 54°18' W 130°21'0 0.0
2014-Oct-16 17:33N 54°18' W 130°21'  

Dump ship's entire track history